Main page
METAR-TAF:

METAR-TAF

Airports :

Istrana Air Base

Treviso, Italy

latitude: 45-41N, longitude: 012-06E, elevation: 45 m

Current weather observation

The report was made 57 minutes ago, at 13:55 UTC
Wind 5 kt from the Southeast
Temperature 27°C
Humidity 51%
Pressure 1011 hPa
Visibility 10 km or more
Scattered clouds at a height of 7000 ft

METAR: LIPS 231355Z 14005KT 9999 SCT070 27/16 Q1011 RMK OVC BKN180 VIS MIN 9999 WIND THR26 /////KT WIND THR08 16003KT BLU

Time: 16:52 (14:52 UTC)

Forecast

The report was made 52 minutes ago, at 14:00 UTC
Forecast valid from 23 at 15 UTC to 23 at 24 UTC
Wind 8 kt from the Northeast
Visibility 10 km or more
Scattered clouds at a height of 2500 ft

TAF: LIPS 231400Z 2315/2324 04008KT 9999 SCT025

Weather observations and forecasts of more than 4000 airports (METAR and TAF reports).

The available stations are represented by yellow and red dots on the map.

Hover mouse over dot to see the name of the station.

Then click to see weather observations and forecasts.

To change the map : click on the green buttons with a black cross to zoom in, on the green button with a dash to zoom out, or on the green arrows for adjacent maps.


METAR-TAF: